Time;durP1;ratioP1;P1;durP2;ratioP2;P2;SDS_P1;SDS_P2;PMS_P1;PMS_P2;Temp;Humidity;BMP_temperature;BMP_pressure;BME280_temperature;BME280_humidity;BME280_pressure;Samples;Min_cycle;Max_cycle;Signal;HPM_P1;HPM_P2
2022/04/26 03:37:17;;;;;;;34.47;15.73;;;5.10;99.90;;;;;;5069511;28;20286;-51
2022/04/26 03:39:43;;;;;;;27.85;14.38;;;5.20;99.90;;;;;;5069701;28;20044;-51
2022/04/26 03:42:09;;;;;;;29.10;13.48;;;5.30;99.90;;;;;;5069220;28;20036;-53
2022/04/26 03:44:35;;;;;;;27.27;13.45;;;5.40;99.90;;;;;;5069451;28;20447;-52
2022/04/26 03:47:01;;;;;;;22.65;14.50;;;5.40;99.90;;;;;;5069451;28;20721;-53
2022/04/26 03:49:27;;;;;;;23.45;13.52;;;5.50;99.90;;;;;;5069161;28;20055;-52
2022/04/26 03:51:53;;;;;;;20.08;12.88;;;5.30;99.90;;;;;;5068753;28;20513;-51
2022/04/26 03:54:20;;;;;;;27.98;14.25;;;5.60;99.90;;;;;;5068611;28;20057;-54
2022/04/26 03:56:46;;;;;;;17.98;12.93;;;5.70;99.90;;;;;;5068826;28;20052;-54
2022/04/26 03:59:11;;;;;;;20.85;11.85;;;5.70;99.90;;;;;;5067512;28;20048;-50
2022/04/26 04:01:37;;;;;;;25.17;12.05;;;5.70;99.90;;;;;;5068915;28;20041;-51
2022/04/26 04:04:03;;;;;;;25.20;13.38;;;6.40;99.90;;;;;;5068714;28;20123;-52
2022/04/26 04:06:29;;;;;;;28.88;13.75;;;5.70;99.90;;;;;;5069370;28;20120;-52
2022/04/26 04:08:55;;;;;;;18.42;11.70;;;5.70;99.90;;;;;;5069255;28;20558;-54
2022/04/26 04:11:20;;;;;;;23.77;11.93;;;7.20;99.90;;;;;;5069412;28;20398;-53
2022/04/26 04:13:46;;;;;;;23.75;11.75;;;5.70;99.90;;;;;;5069012;28;20068;-52
2022/04/26 04:16:12;;;;;;;23.33;11.57;;;5.60;99.90;;;;;;5068787;28;20041;-51
2022/04/26 04:21:22;;;;;;;23.98;10.68;;;5.60;99.90;;;;;;5068780;28;20445;-53
2022/04/26 04:23:47;;;;;;;19.98;10.00;;;5.60;99.90;;;;;;5068965;28;20044;-54
2022/04/26 04:26:13;;;;;;;24.08;9.88;;;5.60;99.90;;;;;;5068272;28;20506;-53
2022/04/26 04:28:39;;;;;;;19.73;9.68;;;5.60;99.90;;;;;;5068743;28;20552;-55
2022/04/26 04:31:05;;;;;;;23.60;10.48;;;6.30;99.90;;;;;;5067728;28;20375;-54
2022/04/26 04:33:31;;;;;;;20.23;9.88;;;5.50;99.90;;;;;;5068527;28;20065;-53
2022/04/26 04:35:57;;;;;;;14.60;10.20;;;5.50;99.90;;;;;;5067220;28;20522;-53
2022/04/26 04:38:22;;;;;;;21.35;9.05;;;5.50;99.90;;;;;;5068046;28;20098;-52
2022/04/26 04:40:48;;;;;;;22.50;10.55;;;5.50;99.90;;;;;;5067986;28;20159;-51
2022/04/26 04:43:14;;;;;;;21.20;9.35;;;5.50;99.90;;;;;;5065437;28;20040;-50
2022/04/26 04:45:40;;;;;;;15.50;9.20;;;6.30;99.90;;;;;;5044227;28;20479;-48
2022/04/26 04:48:18;;;;;;;24.17;10.88;;;5.70;99.90;;;;;;5064698;28;20041;-54
2022/04/26 04:50:44;;;;;;;20.20;9.52;;;5.70;99.90;;;;;;5067648;28;20070;-48
2022/04/26 04:53:25;;;;;;;23.83;10.02;;;5.90;99.90;;;;;;5068364;28;20041;-47
2022/04/26 04:55:50;;;;;;;22.30;9.57;;;6.00;99.90;;;;;;5068322;28;20515;-51
2022/04/26 04:58:16;;;;;;;19.55;9.20;;;6.10;99.90;;;;;;5067168;28;20067;-49
2022/04/26 05:00:42;;;;;;;19.42;9.13;;;6.20;99.90;;;;;;5070596;28;20055;-49
2022/04/26 05:03:07;;;;;;;16.15;8.82;;;6.30;99.90;;;;;;5070981;28;20044;-49
2022/04/26 05:05:33;;;;;;;20.45;9.35;;;6.40;99.90;;;;;;5069158;28;20080;-45
2022/04/26 05:07:59;;;;;;;17.35;9.60;;;7.20;99.90;;;;;;5071085;28;20533;-47
2022/04/26 05:10:25;;;;;;;22.90;9.35;;;6.60;99.90;;;;;;5071933;28;20446;-46
2022/04/26 05:12:51;;;;;;;20.92;9.98;;;6.70;99.90;;;;;;5069190;28;20045;-47
2022/04/26 05:15:17;;;;;;;25.00;8.98;;;6.80;99.90;;;;;;5070242;28;20044;-48
2022/04/26 05:17:42;;;;;;;17.85;8.82;;;6.90;99.90;;;;;;5070169;28;20044;-49
2022/04/26 05:20:09;;;;;;;15.73;8.45;;;7.00;99.90;;;;;;5066950;28;20048;-46
2022/04/26 05:25:34;;;;;;;19.83;6.97;;;7.20;99.90;;;;;;5067313;28;20506;-47
2022/04/26 05:28:01;;;;;;;18.00;6.45;;;7.40;99.90;;;;;;5067902;28;20391;-46
2022/04/26 05:30:26;;;;;;;13.27;5.90;;;7.60;99.90;;;;;;5065261;28;20580;-47
2022/04/26 05:32:52;;;;;;;13.35;5.97;;;8.00;99.90;;;;;;5067915;28;20080;-46
2022/04/26 05:35:20;;;;;;;23.67;6.90;;;8.60;99.90;;;;;;5066793;28;20139;-45
2022/04/26 05:37:46;;;;;;;12.40;5.90;;;10.20;99.90;;;;;;5067008;28;20044;-45
2022/04/26 05:40:12;;;;;;;13.68;5.25;;;11.20;99.90;;;;;;5065725;28;20144;-46
2022/04/26 05:42:38;;;;;;;18.92;4.65;;;11.00;99.90;;;;;;5067495;28;20129;-47
2022/04/26 05:45:04;;;;;;;13.48;4.15;;;10.70;99.90;;;;;;5067526;28;20056;-46
2022/04/26 05:47:30;;;;;;;10.90;3.95;;;10.60;99.90;;;;;;5069107;28;20028;-48
2022/04/26 05:49:56;;;;;;;9.57;4.15;;;10.40;99.90;;;;;;5071114;28;20533;-46
2022/04/26 05:52:24;;;;;;;9.32;4.20;;;10.20;99.90;;;;;;5071271;28;20053;-47
2022/04/26 05:54:50;;;;;;;14.65;5.60;;;10.20;99.90;;;;;;5071190;28;20414;-46
2022/04/26 05:57:16;;;;;;;11.88;3.97;;;10.20;99.90;;;;;;5070631;28;20053;-48
2022/04/26 05:59:42;;;;;;;13.52;4.60;;;10.60;99.90;;;;;;5070858;28;20059;-46
2022/04/26 06:02:07;;;;;;;11.63;3.80;;;10.70;99.90;;;;;;5070935;28;20051;-47
2022/04/26 06:04:33;;;;;;;10.18;3.42;;;11.60;99.90;;;;;;5071037;28;20044;-46
2022/04/26 06:06:59;;;;;;;11.98;2.95;;;13.30;99.90;;;;;;5071221;28;20067;-46
2022/04/26 06:09:24;;;;;;;9.27;3.15;;;14.50;99.90;;;;;;5070729;28;20032;-46
2022/04/26 06:11:50;;;;;;;10.77;3.63;;;15.70;99.90;;;;;;5070674;28;20048;-46
2022/04/26 06:14:16;;;;;;;11.80;3.33;;;16.20;99.90;;;;;;5070557;28;20384;-47
2022/04/26 06:16:41;;;;;;;10.60;3.45;;;16.30;99.90;;;;;;5070749;28;20055;-47
2022/04/26 06:19:07;;;;;;;8.48;2.90;;;16.80;99.90;;;;;;5070559;28;20636;-46
2022/04/26 06:21:32;;;;;;;14.43;3.38;;;17.70;99.90;;;;;;5070695;28;20066;-45
2022/04/26 06:23:58;;;;;;;7.07;2.50;;;18.20;96.40;;;;;;5071027;28;20562;-46
2022/04/26 06:26:24;;;;;;;8.55;3.00;;;17.90;95.10;;;;;;5070526;28;20558;-48
2022/04/26 06:28:50;;;;;;;8.35;2.97;;;17.90;94.20;;;;;;5070741;28;20044;-47
2022/04/26 06:31:15;;;;;;;11.43;3.28;;;17.10;93.30;;;;;;5069679;28;20044;-45
2022/04/26 06:33:41;;;;;;;10.27;3.47;;;16.50;92.90;;;;;;5070212;28;20052;-45
2022/04/26 06:36:07;;;;;;;7.80;2.50;;;15.90;93.30;;;;;;5070440;28;20475;-44
2022/04/26 06:38:32;;;;;;;6.20;2.13;;;15.10;93.90;;;;;;5069963;28;20079;-44
2022/04/26 06:40:58;;;;;;;21.10;3.47;;;14.60;94.30;;;;;;5068765;28;20079;-45
2022/04/26 06:43:24;;;;;;;10.13;4.15;;;14.10;95.20;;;;;;5070621;28;20099;-44
2022/04/26 06:45:49;;;;;;;9.15;2.50;;;13.70;95.60;;;;;;5070645;28;20053;-44
2022/04/26 06:48:17;;;;;;;7.72;2.25;;;13.20;97.00;;;;;;5070212;28;20052;-43
2022/04/26 06:50:44;;;;;;;7.22;2.42;;;13.00;97.80;;;;;;5070677;28;20044;-44
2022/04/26 06:53:10;;;;;;;8.20;2.30;;;12.70;97.80;;;;;;5070768;28;20041;-44
2022/04/26 06:55:36;;;;;;;11.68;2.65;;;12.40;98.80;;;;;;5070586;28;20036;-44
2022/04/26 06:58:02;;;;;;;7.95;2.70;;;12.30;99.70;;;;;;5070409;28;20071;-45
2022/04/26 07:00:28;;;;;;;5.45;1.88;;;12.20;99.90;;;;;;5070059;28;20127;-45
2022/04/26 07:02:54;;;;;;;13.73;2.95;;;12.00;99.90;;;;;;5070404;28;20040;-44
2022/04/26 07:05:21;;;;;;;7.53;1.75;;;12.10;99.90;;;;;;5069770;28;20127;-43
2022/04/26 07:07:49;;;;;;;10.95;2.25;;;12.20;99.90;;;;;;5070332;28;20047;-43
2022/04/26 07:10:15;;;;;;;11.35;2.25;;;12.30;99.90;;;;;;5069414;28;20148;-45
2022/04/26 07:12:41;;;;;;;13.70;2.47;;;12.30;99.90;;;;;;5069700;28;20119;-44
2022/04/26 07:15:07;;;;;;;10.90;2.30;;;12.70;99.80;;;;;;5069888;28;20048;-46
2022/04/26 07:17:32;;;;;;;8.77;1.55;;;12.90;99.30;;;;;;5068006;28;20510;-44
2022/04/26 07:19:59;;;;;;;7.53;2.00;;;13.90;97.80;;;;;;5069535;28;20040;-45
2022/04/26 07:22:25;;;;;;;7.03;2.13;;;14.60;96.50;;;;;;5069112;28;20037;-46
2022/04/26 07:24:51;;;;;;;6.18;2.15;;;15.40;94.90;;;;;;5068936;28;20058;-45
2022/04/26 07:27:18;;;;;;;8.50;1.67;;;15.50;92.90;;;;;;5068799;28;20037;-44
2022/04/26 07:29:48;;;;;;;6.55;1.70;;;16.20;91.80;;;;;;5069689;28;20052;-45
2022/04/26 07:32:14;;;;;;;6.53;1.73;;;16.30;91.10;;;;;;5069257;28;20036;-44
2022/04/26 07:34:40;;;;;;;7.80;1.58;;;16.20;90.30;;;;;;5069054;28;20445;-44
2022/04/26 07:37:06;;;;;;;7.60;1.92;;;16.00;89.30;;;;;;5069683;28;20057;-45
2022/04/26 07:39:33;;;;;;;3.47;1.83;;;15.70;88.00;;;;;;5069297;28;20056;-45
2022/04/26 07:42:01;;;;;;;6.93;2.50;;;15.80;87.40;;;;;;5069145;28;20040;-44
2022/04/26 07:44:27;;;;;;;7.13;1.70;;;16.80;87.70;;;;;;5069155;28;20049;-44
2022/04/26 07:46:54;;;;;;;7.97;1.73;;;18.10;86.40;;;;;;5069266;28;20094;-44
2022/04/26 07:49:21;;;;;;;7.15;1.67;;;19.00;83.50;;;;;;5069244;28;20044;-45
2022/04/26 07:51:47;;;;;;;5.53;1.60;;;19.90;81.00;;;;;;5069173;28;20553;-46
2022/04/26 07:54:15;;;;;;;6.28;1.45;;;21.00;78.10;;;;;;5069115;28;20044;-45
2022/04/26 07:56:41;;;;;;;5.68;1.30;;;21.90;74.00;;;;;;5068793;28;20554;-45
2022/04/26 07:59:07;;;;;;;9.50;2.03;;;22.40;71.00;;;;;;5068974;28;20136;-45
2022/04/26 08:01:33;;;;;;;7.25;1.30;;;22.60;68.20;;;;;;5068764;28;20097;-45
2022/04/26 08:03:59;;;;;;;5.80;1.40;;;22.90;66.50;;;;;;5069585;28;20122;-44
2022/04/26 08:06:25;;;;;;;7.47;1.45;;;23.40;65.50;;;;;;5068668;28;20501;-45
2022/04/26 08:08:51;;;;;;;4.75;1.38;;;24.40;63.00;;;;;;5068984;28;20115;-45
2022/04/26 08:11:17;;;;;;;3.95;0.98;;;25.40;60.10;;;;;;5068382;28;20050;-44
2022/04/26 08:13:43;;;;;;;6.10;1.75;;;24.90;58.10;;;;;;5068908;28;20036;-44
2022/04/26 08:16:10;;;;;;;3.08;0.82;;;24.50;57.80;;;;;;5068953;28;20051;-46
2022/04/26 08:18:36;;;;;;;8.80;0.82;;;24.50;57.30;;;;;;5068737;28;20040;-46
2022/04/26 08:21:03;;;;;;;7.00;1.08;;;24.00;56.90;;;;;;5068555;28;20078;-46
2022/04/26 08:23:30;;;;;;;5.10;1.42;;;24.30;55.50;;;;;;5068210;28;20904;-46
2022/04/26 08:28:41;;;;;;;5.07;1.08;;;25.70;54.50;;;;;;5068593;28;20046;-45
2022/04/26 08:31:06;;;;;;;4.40;1.00;;;25.30;53.80;;;;;;5068482;28;20041;-44
2022/04/26 08:33:34;;;;;;;5.50;1.20;;;24.50;53.30;;;;;;5068465;28;20048;-45
2022/04/26 08:36:01;;;;;;;11.07;1.45;;;24.10;53.10;;;;;;5068618;28;20088;-45
2022/04/26 08:38:27;;;;;;;6.63;1.27;;;24.00;53.40;;;;;;5068399;28;20043;-45
2022/04/26 08:40:52;;;;;;;5.20;1.23;;;23.90;53.30;;;;;;5068904;28;20115;-45
2022/04/26 08:43:18;;;;;;;5.25;1.17;;;23.40;52.90;;;;;;5068621;28;20037;-44
2022/04/26 08:45:46;;;;;;;3.20;0.63;;;23.10;53.10;;;;;;5068353;28;20443;-46
2022/04/26 08:51:03;;;;;;;9.23;1.17;;;24.80;52.50;;;;;;5068540;28;20052;-44
2022/04/26 08:53:31;;;;;;;6.47;1.20;;;26.40;50.50;;;;;;5068363;28;20040;-45
2022/04/26 08:56:01;;;;;;;3.67;1.20;;;27.40;48.50;;;;;;5068408;28;20119;-45
2022/04/26 08:58:31;;;;;;;5.25;0.93;;;26.90;48.00;;;;;;5068662;28;20407;-45
2022/04/26 09:01:18;;;;;;;4.68;1.08;;;26.20;47.80;;;;;;5068495;28;20044;-46
2022/04/26 09:03:56;;;;;;;4.18;0.98;;;25.30;47.60;;;;;;5068181;28;20387;-44
2022/04/26 09:06:36;;;;;;;3.88;1.13;;;24.20;48.50;;;;;;5068268;28;20048;-46
2022/04/26 09:09:08;;;;;;;6.55;1.33;;;23.00;49.30;;;;;;5068397;28;20041;-44
2022/04/26 09:11:34;;;;;;;6.32;1.23;;;22.00;50.30;;;;;;5068013;28;20074;-44
2022/04/26 09:14:03;;;;;;;4.50;1.10;;;21.40;51.90;;;;;;5068550;28;20037;-44
2022/04/26 09:16:29;;;;;;;7.47;1.02;;;21.70;52.60;;;;;;5068489;28;20076;-44
2022/04/26 09:18:58;;;;;;;5.53;1.05;;;21.60;52.30;;;;;;5068147;28;20048;-45
2022/04/26 09:21:27;;;;;;;6.97;1.13;;;20.90;52.50;;;;;;5069455;28;20406;-44
2022/04/26 09:23:58;;;;;;;4.28;1.27;;;20.30;53.40;;;;;;5072068;28;20059;-44
2022/04/26 09:26:25;;;;;;;7.57;1.42;;;19.60;54.30;;;;;;5072072;28;20124;-46
2022/04/26 09:28:51;;;;;;;6.68;1.38;;;18.90;55.80;;;;;;5071645;28;20036;-45
2022/04/26 09:31:20;;;;;;;4.78;1.35;;;18.50;55.70;;;;;;5071222;28;20045;-45
2022/04/26 09:33:47;;;;;;;4.80;1.50;;;21.30;53.30;;;;;;5070963;28;20053;-45
2022/04/26 09:36:15;;;;;;;4.15;1.23;;;21.70;54.30;;;;;;5071182;28;20419;-44
2022/04/26 09:38:55;;;;;;;6.00;1.52;;;23.90;52.00;;;;;;5070945;28;20483;-49
2022/04/26 09:41:22;;;;;;;4.20;1.25;;;25.90;70.80;;;;;;5071392;28;20127;-46
2022/04/26 09:44:06;;;;;;;6.35;1.40;;;27.10;50.20;;;;;;5071439;28;20044;-46
2022/04/26 09:46:43;;;;;;;5.68;0.98;;;27.20;53.10;;;;;;5071752;28;20051;-46
2022/04/26 09:49:12;;;;;;;7.38;2.17;;;27.70;44.70;;;;;;5071339;28;20044;-47
2022/04/26 09:51:39;;;;;;;9.50;1.83;;;28.60;45.00;;;;;;5071022;28;20044;-46
2022/04/26 09:54:05;;;;;;;3.83;0.98;;;28.60;44.70;;;;;;5071308;28;20041;-45
2022/04/26 09:56:32;;;;;;;8.50;1.70;;;27.60;43.10;;;;;;5071206;28;20206;-47
2022/04/26 09:58:59;;;;;;;5.85;1.67;;;26.40;43.90;;;;;;5071160;28;20040;-45
2022/04/26 10:01:34;;;;;;;6.25;1.27;;;25.60;45.50;;;;;;5071305;28;20050;-48
2022/04/26 10:04:03;;;;;;;6.30;1.23;;;25.00;46.40;;;;;;5070844;28;20044;-45
2022/04/26 10:06:37;;;;;;;4.65;1.30;;;25.10;46.90;;;;;;5070898;28;20081;-49
2022/04/26 10:09:13;;;;;;;5.00;1.10;;;25.40;46.80;;;;;;5070683;28;20037;-47
2022/04/26 10:11:39;;;;;;;5.97;1.88;;;24.70;46.30;;;;;;5071163;28;20045;-48
2022/04/26 10:14:08;;;;;;;6.47;1.45;;;23.90;47.10;;;;;;5070578;28;20162;-46
2022/04/26 10:16:34;;;;;;;4.43;1.20;;;23.10;47.70;;;;;;5070927;28;20109;-45
2022/04/26 10:19:12;;;;;;;3.05;1.70;;;22.80;48.90;;;;;;5070641;28;20035;-45
2022/04/26 10:21:40;;;;;;;5.88;1.05;;;23.30;47.90;;;;;;5070770;28;20041;-45
2022/04/26 10:24:12;;;;;;;6.35;2.03;;;24.00;48.70;;;;;;5071083;28;20692;-45
2022/04/26 10:26:38;;;;;;;4.70;1.50;;;24.70;47.00;;;;;;5071116;28;20048;-45
2022/04/26 10:29:06;;;;;;;5.82;1.48;;;25.40;46.30;;;;;;5070481;28;20040;-45
2022/04/26 10:31:35;;;;;;;3.67;1.33;;;26.40;45.80;;;;;;5070251;28;20039;-46
2022/04/26 10:34:26;;;;;;;8.02;1.77;;;27.40;44.40;;;;;;5069585;28;20083;-45
2022/04/26 10:36:57;;;;;;;5.45;1.33;;;27.20;42.40;;;;;;5070790;28;20036;-47
2022/04/26 10:39:31;;;;;;;5.45;1.30;;;25.90;42.30;;;;;;5070382;28;20543;-45
2022/04/26 10:41:58;;;;;;;4.85;1.77;;;25.00;43.40;;;;;;5069942;28;20520;-44
2022/04/26 10:44:26;;;;;;;6.75;1.38;;;24.10;43.70;;;;;;5069976;28;20502;-45
2022/04/26 10:46:57;;;;;;;3.15;0.95;;;23.20;44.80;;;;;;5069820;28;20082;-47
2022/04/26 10:49:29;;;;;;;7.33;2.13;;;22.60;46.20;;;;;;5070261;28;20047;-44
2022/04/26 10:51:55;;;;;;;;;;;22.10;47.30;;;;;;5070603;28;20282;-45
2022/04/26 10:54:45;;;;;;;6.90;1.80;;;21.60;49.00;;;;;;5069965;28;19970;-45
2022/04/26 10:57:22;;;;;;;7.85;1.52;;;21.30;49.70;;;;;;5070144;28;20055;-45
2022/04/26 11:00:15;;;;;;;5.63;1.63;;;21.00;49.60;;;;;;5069740;28;20040;-46
2022/04/26 11:02:50;;;;;;;6.18;1.60;;;20.80;49.80;;;;;;5069716;28;20075;-45
2022/04/26 11:05:34;;;;;;;7.50;1.50;;;20.60;50.00;;;;;;5070000;28;20074;-49
2022/04/26 11:08:01;;;;;;;6.53;1.52;;;20.50;51.60;;;;;;5069438;28;20040;-46
2022/04/26 11:11:00;;;;;;;4.35;1.60;;;20.30;51.20;;;;;;5070032;28;20036;-44
2022/04/26 11:13:18;;;;;;;5.47;1.80;;;20.10;51.00;;;;;;5069450;28;20045;-47
2022/04/26 11:15:45;;;;;;;3.45;1.40;;;19.60;50.10;;;;;;5069919;28;20052;-44
2022/04/26 11:18:19;;;;;;;6.47;2.47;;;19.20;51.20;;;;;;5068033;28;20063;-48
2022/04/26 11:20:46;;;;;;;10.05;1.83;;;19.00;52.90;;;;;;5069885;28;20055;-45
2022/04/26 11:28:50;;;;;;;7.30;1.77;;;18.50;53.30;;;;;;5069445;28;20141;-46
2022/04/26 11:31:16;;;;;;;5.43;1.50;;;18.40;54.00;;;;;;5067734;28;20075;-45
2022/04/26 11:33:49;;;;;;;6.07;1.90;;;18.40;53.90;;;;;;5069261;28;20055;-45
2022/04/26 11:36:15;;;;;;;5.95;1.90;;;18.40;54.20;;;;;;5069339;28;20131;-48
2022/04/26 11:38:40;;;;;;;5.40;1.50;;;18.20;53.80;;;;;;5069312;28;20123;-44
2022/04/26 11:41:09;;;;;;;5.43;1.52;;;18.10;54.30;;;;;;5069135;28;20114;-45
2022/04/26 11:43:36;;;;;;;5.57;2.08;;;18.00;54.10;;;;;;5069225;28;20130;-45
2022/04/26 11:46:04;;;;;;;4.47;1.75;;;17.90;54.00;;;;;;5068410;28;20772;-45
2022/04/26 11:48:33;;;;;;;4.00;1.65;;;17.80;54.20;;;;;;5069631;28;20049;-45
2022/04/26 11:50:59;;;;;;;4.20;2.13;;;17.70;54.30;;;;;;5069148;28;20040;-44
2022/04/26 11:53:30;;;;;;;4.78;1.95;;;17.60;55.00;;;;;;5068894;28;20036;-45
2022/04/26 11:55:56;;;;;;;4.90;1.73;;;17.50;55.00;;;;;;5068894;28;20062;-44
2022/04/26 11:58:32;;;;;;;5.18;1.80;;;17.40;55.10;;;;;;5069483;28;20040;-45
2022/04/26 12:01:02;;;;;;;4.72;1.23;;;17.30;55.80;;;;;;5069104;28;20210;-45
2022/04/26 12:03:34;;;;;;;7.68;1.90;;;17.40;56.10;;;;;;5069270;28;20050;-48
2022/04/26 12:06:03;;;;;;;4.13;1.95;;;17.50;56.00;;;;;;5068752;28;20041;-48
2022/04/26 12:08:40;;;;;;;5.85;1.90;;;17.30;55.70;;;;;;5068822;28;20529;-47
2022/04/26 12:11:21;;;;;;;4.13;1.73;;;17.40;55.30;;;;;;5068342;28;20036;-47
2022/04/26 12:14:14;;;;;;;5.57;1.58;;;17.40;56.70;;;;;;5068966;28;20093;-48
2022/04/26 12:16:43;;;;;;;3.72;1.60;;;17.50;57.20;;;;;;5069010;28;20056;-47
2022/04/26 12:19:10;;;;;;;5.03;1.55;;;17.30;56.20;;;;;;5068927;28;20364;-45
2022/04/26 12:21:55;;;;;;;4.72;1.60;;;17.00;56.40;;;;;;5083833;28;20115;-46
2022/04/26 12:24:31;;;;;;;5.63;1.67;;;16.80;56.70;;;;;;5068574;28;20032;-45
2022/04/26 12:26:58;;;;;;;7.18;1.80;;;15.50;57.00;;;;;;5068784;28;20048;-44
2022/04/26 12:29:36;;;;;;;5.82;1.50;;;16.70;57.00;;;;;;5068589;28;20083;-48
2022/04/26 12:32:08;;;;;;;4.50;1.48;;;16.70;57.10;;;;;;5067837;28;20071;-49
2022/04/26 12:34:35;;;;;;;5.07;2.50;;;16.70;57.30;;;;;;5068139;28;20056;-45
2022/04/26 12:37:22;;;;;;;9.13;1.85;;;16.50;56.80;;;;;;5068208;28;20084;-47
2022/04/26 12:39:58;;;;;;;5.35;1.67;;;16.50;57.70;;;;;;5068652;28;20093;-46
2022/04/26 12:42:27;;;;;;;19.33;2.42;;;16.60;58.80;;;;;;5068305;28;20044;-44
2022/04/26 12:44:55;;;;;;;7.95;2.10;;;16.80;58.90;;;;;;5068229;28;20048;-47
2022/04/26 12:50:28;;;;;;;6.15;1.77;;;17.10;59.10;;;;;;5067912;28;20052;-44
2022/04/26 12:52:56;;;;;;;6.00;1.92;;;17.20;58.30;;;;;;5068278;28;20475;-45
2022/04/26 12:55:43;;;;;;;4.63;1.40;;;17.00;57.30;;;;;;5068202;28;20036;-45
2022/04/26 12:58:11;;;;;;;4.45;1.45;;;16.80;57.20;;;;;;5071898;28;20542;-44
2022/04/26 13:00:50;;;;;;;6.88;1.58;;;16.50;56.40;;;;;;5072540;28;20036;-45
2022/04/26 13:03:17;;;;;;;6.82;1.48;;;16.40;57.30;;;;;;5070882;28;20048;-50
2022/04/26 13:05:46;;;;;;;3.83;1.10;;;16.50;58.00;;;;;;5072309;28;20084;-50
2022/04/26 13:08:16;;;;;;;3.58;0.95;;;18.30;58.50;;;;;;5072094;28;20059;-46
2022/04/26 13:10:43;;;;;;;6.78;2.00;;;16.60;57.10;;;;;;5072142;28;20116;-44
2022/04/26 13:13:10;;;;;;;3.78;1.45;;;16.60;57.60;;;;;;5070668;28;20052;-44
2022/04/26 13:15:36;;;;;;;6.55;1.50;;;16.60;58.40;;;;;;5072082;28;20044;-46
2022/04/26 13:18:04;;;;;;;3.92;0.93;;;16.60;59.20;;;;;;5072166;28;20132;-44
2022/04/26 13:20:30;;;;;;;5.00;1.17;;;16.70;59.70;;;;;;5071828;28;20044;-45
2022/04/26 13:22:56;;;;;;;6.53;1.45;;;16.70;59.90;;;;;;5072090;28;20044;-44
2022/04/26 13:25:22;;;;;;;5.03;1.52;;;16.80;59.80;;;;;;5071558;28;20587;-44
2022/04/26 13:27:48;;;;;;;5.30;1.55;;;16.70;58.70;;;;;;5072221;28;20131;-45
2022/04/26 13:30:15;;;;;;;4.65;1.42;;;16.50;58.60;;;;;;5071545;28;20075;-46
2022/04/26 13:32:41;;;;;;;4.53;1.30;;;16.40;58.20;;;;;;5071440;28;20036;-44
2022/04/26 13:35:08;;;;;;;4.22;1.52;;;16.30;58.60;;;;;;5071570;28;20404;-44
2022/04/26 13:37:35;;;;;;;1.88;0.80;;;16.30;58.60;;;;;;5071997;28;20064;-43
2022/04/26 13:40:02;;;;;;;4.00;1.27;;;16.30;58.40;;;;;;5071686;28;20105;-44
2022/04/26 13:42:30;;;;;;;8.70;1.55;;;16.30;58.20;;;;;;5071252;28;20044;-44
2022/04/26 13:44:58;;;;;;;6.88;1.15;;;16.30;59.70;;;;;;5071663;28;20189;-44
2022/04/26 13:47:23;;;;;;;4.13;1.20;;;16.60;61.00;;;;;;5071066;28;20495;-44
2022/04/26 13:49:51;;;;;;;4.43;1.05;;;16.40;60.70;;;;;;5071821;28;20035;-46
2022/04/26 13:52:17;;;;;;;3.53;1.10;;;16.30;60.90;;;;;;5071390;28;20391;-46
2022/04/26 13:54:43;;;;;;;4.72;1.50;;;16.30;60.40;;;;;;5071746;28;20049;-45
2022/04/26 13:57:10;;;;;;;3.35;1.40;;;16.20;59.00;;;;;;5071309;28;20048;-46
2022/04/26 13:59:36;;;;;;;4.68;1.48;;;16.10;59.20;;;;;;5071049;28;20667;-46
2022/04/26 14:02:04;;;;;;;3.42;1.20;;;16.20;59.70;;;;;;5069717;28;20049;-44
2022/04/26 14:04:29;;;;;;;5.45;1.23;;;16.20;60.60;;;;;;5069333;28;20084;-44
2022/04/26 14:06:55;;;;;;;4.82;1.10;;;16.20;60.50;;;;;;5071026;28;20079;-45
2022/04/26 14:09:22;;;;;;;3.70;1.10;;;16.30;60.00;;;;;;5069911;28;20045;-45
2022/04/26 14:11:48;;;;;;;4.78;1.48;;;16.20;60.40;;;;;;5071316;28;20044;-45
2022/04/26 14:22:32;;;;;;;7.43;1.38;;;15.70;60.10;;;;;;5070553;28;20487;-44
2022/04/26 14:25:04;;;;;;;4.30;1.15;;;15.70;61.10;;;;;;5070679;28;20053;-44
2022/04/26 14:27:31;;;;;;;8.90;1.90;;;15.60;61.70;;;;;;5070054;28;20821;-45
2022/04/26 14:29:57;;;;;;;5.10;1.30;;;15.50;61.90;;;;;;5070621;28;20047;-45
2022/04/26 14:32:23;;;;;;;7.20;1.02;;;15.40;61.80;;;;;;5068391;28;20048;-46
2022/04/26 14:34:49;;;;;;;6.03;1.27;;;15.30;62.00;;;;;;5070340;28;20088;-49
2022/04/26 14:37:16;;;;;;;6.07;1.40;;;15.20;61.90;;;;;;5070109;28;20079;-45
2022/04/26 14:39:41;;;;;;;4.00;1.50;;;15.10;61.80;;;;;;5070146;28;20848;-48
2022/04/26 14:42:08;;;;;;;6.25;1.25;;;15.10;61.20;;;;;;5068773;28;20151;-39
2022/04/26 14:44:54;;;;;;;6.00;1.27;;;15.00;61.10;;;;;;5070492;28;20052;-43
2022/04/26 14:47:20;;;;;;;4.68;1.23;;;15.00;62.10;;;;;;5070406;28;20119;-43
2022/04/26 14:49:47;;;;;;;4.43;1.15;;;15.00;61.90;;;;;;5070567;28;20119;-52
2022/04/26 14:52:21;;;;;;;8.00;1.70;;;15.10;62.00;;;;;;5069709;28;20036;-47
2022/04/26 14:54:53;;;;;;;10.90;1.88;;;15.10;61.60;;;;;;5070897;28;20040;-45
2022/04/26 14:57:18;;;;;;;6.13;1.35;;;15.10;61.70;;;;;;5069032;28;20119;-42
2022/04/26 14:59:48;;;;;;;8.48;2.60;;;15.20;61.90;;;;;;5084974;28;20171;-41
2022/04/26 15:02:18;;;;;;;4.47;1.17;;;15.20;62.60;;;;;;5069652;28;20111;-44
2022/04/26 15:04:48;;;;;;;5.55;1.52;;;15.20;61.70;;;;;;5069938;28;20531;-44
2022/04/26 15:07:15;;;;;;;6.28;1.95;;;15.30;61.00;;;;;;5070462;28;20037;-44
2022/04/26 15:09:44;;;;;;;7.40;1.52;;;15.30;61.60;;;;;;5069671;28;20094;-43
2022/04/26 15:17:48;;;;;;;5.07;1.85;;;15.20;62.10;;;;;;5069318;28;20129;-44
2022/04/26 15:20:16;;;;;;;4.88;1.38;;;15.20;61.90;;;;;;5068615;28;20406;-44
2022/04/26 15:22:42;;;;;;;6.03;1.85;;;15.20;62.20;;;;;;5068443;28;20477;-44
2022/04/26 15:25:09;;;;;;;5.95;1.48;;;15.10;62.00;;;;;;5068737;28;20056;-45
2022/04/26 15:27:38;;;;;;;5.50;1.75;;;15.00;61.70;;;;;;5066918;28;20635;-46
2022/04/26 15:30:06;;;;;;;6.90;1.55;;;14.90;61.70;;;;;;5068578;28;20040;-48
2022/04/26 15:32:32;;;;;;;6.75;2.45;;;14.80;61.90;;;;;;5068582;28;20041;-48
2022/04/26 15:34:58;;;;;;;4.18;1.30;;;14.70;62.60;;;;;;5068282;28;20568;-48
2022/04/26 15:37:27;;;;;;;4.10;1.25;;;14.70;63.30;;;;;;5066497;28;20055;-48
2022/04/26 15:39:54;;;;;;;4.53;1.50;;;14.70;63.40;;;;;;5068820;28;20059;-47
2022/04/26 15:42:21;;;;;;;5.68;2.22;;;14.70;63.40;;;;;;5067838;28;20089;-48
2022/04/26 15:44:47;;;;;;;7.72;1.50;;;14.60;63.30;;;;;;5068232;28;20041;-49
2022/04/26 15:47:13;;;;;;;4.22;1.60;;;14.40;63.40;;;;;;5069421;28;20047;-49
2022/04/26 15:49:48;;;;;;;3.88;1.55;;;14.40;63.30;;;;;;5068840;28;20174;-47
2022/04/26 15:52:16;;;;;;;8.90;1.98;;;14.20;64.60;;;;;;5069107;28;20047;-47
2022/04/26 15:54:43;;;;;;;12.57;1.75;;;14.30;69.80;;;;;;5068663;28;20048;-47
2022/04/26 15:57:11;;;;;;;3.15;1.30;;;14.10;72.50;;;;;;5069088;28;20052;-49
2022/04/26 15:59:37;;;;;;;5.72;1.95;;;14.20;65.60;;;;;;5068017;28;20051;-46
2022/04/26 16:02:04;;;;;;;7.65;2.00;;;13.70;63.90;;;;;;5068535;28;20036;-50
2022/04/26 16:04:29;;;;;;;6.57;1.60;;;13.60;64.00;;;;;;5068083;28;20048;-51
2022/04/26 16:06:55;;;;;;;7.72;1.63;;;13.50;64.30;;;;;;5067727;28;20093;-48
2022/04/26 16:20:34;;;;;;;7.45;2.17;;;13.10;74.30;;;;;;5066074;28;20063;-52
2022/04/26 16:23:05;;;;;;;5.60;2.13;;;13.50;75.30;;;;;;5067861;28;20047;-50
2022/04/26 16:25:31;;;;;;;5.18;1.20;;;13.00;80.40;;;;;;5065537;28;20128;-49
2022/04/26 16:28:00;;;;;;;10.35;2.17;;;13.20;83.80;;;;;;5067862;28;20040;-49
2022/04/26 16:30:28;;;;;;;5.43;2.30;;;13.00;81.70;;;;;;5067119;28;20048;-49
2022/04/26 16:32:55;;;;;;;6.32;1.50;;;13.30;82.60;;;;;;5067168;28;20391;-50
2022/04/26 16:35:22;;;;;;;7.35;1.38;;;13.50;83.80;;;;;;5067270;28;20060;-52
2022/04/26 16:37:48;;;;;;;4.28;1.23;;;13.20;82.10;;;;;;5067134;28;20052;-51
2022/04/26 16:40:13;;;;;;;4.50;1.55;;;13.20;84.00;;;;;;5067472;28;20086;-49
2022/04/26 16:42:40;;;;;;;4.45;1.50;;;12.80;84.00;;;;;;5067214;28;20044;-51
2022/04/26 16:45:06;;;;;;;6.03;1.50;;;12.70;81.30;;;;;;5068076;28;20089;-50
2022/04/26 16:47:32;;;;;;;5.75;1.15;;;12.30;77.30;;;;;;5067064;28;20044;-52
2022/04/26 16:50:01;;;;;;;6.18;1.42;;;12.10;74.90;;;;;;5067339;28;20044;-50
2022/04/26 16:52:39;;;;;;;7.35;2.33;;;11.80;71.20;;;;;;5067444;28;20041;-50
2022/04/26 16:55:05;;;;;;;4.63;1.50;;;11.60;72.40;;;;;;5067600;28;20568;-51
2022/04/26 16:57:31;;;;;;;7.45;1.85;;;11.30;70.70;;;;;;5067911;28;20040;-50
2022/04/26 17:00:14;;;;;;;3.83;1.40;;;11.70;70.50;;;;;;5066960;28;20048;-50
2022/04/26 17:02:40;;;;;;;5.97;1.30;;;11.00;70.00;;;;;;5067563;28;20041;-52
2022/04/26 17:05:06;;;;;;;6.13;2.05;;;11.50;71.00;;;;;;5068036;28;20052;-50
2022/04/26 17:07:41;;;;;;;5.45;1.73;;;10.80;71.00;;;;;;5067703;28;20045;-53
2022/04/26 17:10:13;;;;;;;8.48;2.05;;;11.60;72.10;;;;;;5067975;28;20051;-49
2022/04/26 17:12:39;;;;;;;6.10;1.65;;;11.00;72.40;;;;;;5067950;28;20052;-50